Time;durP1;ratioP1;P1;durP2;ratioP2;P2;SDS_P1;SDS_P2;PMS_P1;PMS_P2;Temp;Humidity;BMP_temperature;BMP_pressure;BME280_temperature;BME280_humidity;BME280_pressure;Samples;Min_cycle;Max_cycle;Signal;HPM_P1;HPM_P2
2021/11/19 00:00:50;;;;;;;;;;;4.90;99.90;;;;;;5113109;28;20458;-52
2021/11/19 00:03:17;;;;;;;;;;;4.90;99.90;;;;;;5112558;28;19945;-52
2021/11/19 00:05:46;;;;;;;;;;;4.90;99.90;;;;;;5113354;28;19927;-52
2021/11/19 00:08:13;;;;;;;;;;;4.90;99.90;;;;;;5113005;28;19923;-52
2021/11/19 00:10:40;;;;;;;;;;;5.00;99.90;;;;;;5112376;28;19924;-52
2021/11/19 00:13:07;;;;;;;;;;;4.90;99.90;;;;;;5112475;28;19923;-52
2021/11/19 00:15:35;;;;;;;;;;;4.90;99.90;;;;;;5113115;28;19924;-52
2021/11/19 00:18:03;;;;;;;;;;;4.80;99.90;;;;;;5111924;28;19969;-52
2021/11/19 00:20:30;;;;;;;;;;;4.80;99.90;;;;;;5112917;28;19927;-52
2021/11/19 00:22:58;;;;;;;;;;;4.80;99.90;;;;;;5113127;28;19923;-53
2021/11/19 00:25:25;;;;;;;;;;;4.80;99.90;;;;;;5113119;28;20335;-52
2021/11/19 00:27:52;;;;;;;;;;;4.60;99.90;;;;;;5112813;28;19930;-52
2021/11/19 00:30:19;;;;;;;;;;;4.50;99.90;;;;;;5111272;28;19936;-52
2021/11/19 00:32:48;;;;;;;;;;;4.60;99.90;;;;;;5113091;28;19928;-52
2021/11/19 00:35:15;;;;;;;;;;;4.70;99.90;;;;;;5112756;28;19931;-52
2021/11/19 00:37:42;;;;;;;;;;;4.70;99.90;;;;;;5112875;28;19927;-52
2021/11/19 00:40:11;;;;;;;;;;;4.70;99.90;;;;;;5111895;28;20664;-52
2021/11/19 00:42:38;;;;;;;;;;;4.50;99.90;;;;;;5112312;28;19953;-52
2021/11/19 00:45:06;;;;;;;;;;;4.50;99.90;;;;;;5112486;28;19924;-52
2021/11/19 00:47:32;;;;;;;;;;;4.50;99.90;;;;;;5112552;28;19924;-52
2021/11/19 00:50:00;;;;;;;;;;;4.60;99.90;;;;;;5111891;28;19961;-52
2021/11/19 00:52:28;;;;;;;;;;;4.60;99.90;;;;;;5112553;28;19977;-52
2021/11/19 00:54:55;;;;;;;;;;;4.60;99.90;;;;;;5112794;28;20017;-52
2021/11/19 00:57:22;;;;;;;;;;;4.50;99.90;;;;;;5112313;28;20022;-52
2021/11/19 00:59:49;;;;;;;;;;;4.60;99.90;;;;;;5111595;28;19927;-52
2021/11/19 01:02:17;;;;;;;;;;;4.50;99.90;;;;;;5112159;28;20006;-52
2021/11/19 01:04:44;;;;;;;;;;;4.50;99.90;;;;;;5112237;28;19977;-52
2021/11/19 01:07:13;;;;;;;;;;;4.50;99.90;;;;;;5112360;28;20000;-52
2021/11/19 01:09:41;;;;;;;;;;;4.50;99.90;;;;;;5112295;28;19928;-52
2021/11/19 01:12:09;;;;;;;;;;;4.40;99.90;;;;;;5111740;28;20389;-52
2021/11/19 01:14:38;;;;;;;;;;;4.40;99.90;;;;;;5112338;28;19924;-52
2021/11/19 01:17:07;;;;;;;;;;;4.30;99.90;;;;;;5111150;28;19977;-52
2021/11/19 01:19:35;;;;;;;;;;;4.30;99.90;;;;;;5112068;28;19924;-52
2021/11/19 01:22:05;;;;;;;;;;;4.40;99.90;;;;;;5112306;28;19924;-52
2021/11/19 01:24:33;;;;;;;;;;;4.40;99.90;;;;;;5111586;28;19977;-52
2021/11/19 01:27:00;;;;;;;;;;;4.40;99.90;;;;;;5111845;28;19969;-52
2021/11/19 01:29:27;;;;;;;;;;;4.30;99.90;;;;;;5112095;28;19924;-53
2021/11/19 01:31:55;;;;;;;;;;;4.30;99.90;;;;;;5112268;28;20305;-52
2021/11/19 01:34:22;;;;;;;;;;;4.30;99.90;;;;;;5112061;28;19924;-52
2021/11/19 01:36:49;;;;;;;;;;;4.30;99.90;;;;;;5111767;28;19928;-52
2021/11/19 01:39:17;;;;;;;;;;;4.30;99.90;;;;;;5111486;28;19977;-52
2021/11/19 01:41:47;;;;;;;;;;;4.30;99.90;;;;;;5105981;28;19963;-52
2021/11/19 01:44:15;;;;;;;;;;;4.20;99.90;;;;;;5112446;28;19977;-52
2021/11/19 01:46:43;;;;;;;;;;;4.20;99.90;;;;;;5111330;28;19924;-52
2021/11/19 01:49:10;;;;;;;;;;;4.10;99.90;;;;;;5111423;28;19924;-52
2021/11/19 01:51:42;;;;;;;;;;;4.10;99.90;;;;;;5111636;28;19924;-52
2021/11/19 01:54:11;;;;;;;;;;;4.00;99.90;;;;;;5112313;28;19928;-52
2021/11/19 01:56:39;;;;;;;;;;;3.90;99.90;;;;;;5111495;28;19969;-52
2021/11/19 01:59:10;;;;;;;;;;;3.80;99.90;;;;;;5111598;28;20377;-52
2021/11/19 02:01:38;;;;;;;;;;;3.80;99.90;;;;;;5109795;28;19977;-52
2021/11/19 02:04:07;;;;;;;;;;;3.80;99.90;;;;;;5111262;28;20012;-52
2021/11/19 02:06:35;;;;;;;;;;;3.70;99.90;;;;;;5108116;28;19977;-52
2021/11/19 02:09:06;;;;;;;;;;;3.70;99.90;;;;;;5111808;28;19931;-52
2021/11/19 02:11:37;;;;;;;;;;;3.70;99.90;;;;;;5113107;28;19927;-52
2021/11/19 02:14:07;;;;;;;;;;;3.60;99.90;;;;;;5115437;28;19928;-52
2021/11/19 02:16:38;;;;;;;;;;;3.70;99.90;;;;;;5115443;28;19992;-52
2021/11/19 02:19:06;;;;;;;;;;;3.90;99.90;;;;;;5108992;28;19977;-52
2021/11/19 02:21:35;;;;;;;;;;;3.80;99.90;;;;;;5114912;28;19923;-52
2021/11/19 02:24:04;;;;;;;;;;;3.80;99.90;;;;;;5115026;28;19924;-51
2021/11/19 02:26:35;;;;;;;;;;;3.70;99.90;;;;;;5114960;28;20598;-52
2021/11/19 02:29:03;;;;;;;;;;;3.60;99.90;;;;;;5114742;28;19923;-52
2021/11/19 02:31:32;;;;;;;;;;;3.40;99.90;;;;;;5106535;28;19924;-53
2021/11/19 02:34:04;;;;;;;;;;;3.40;99.90;;;;;;5112531;28;19931;-55
2021/11/19 02:36:35;;;;;;;;;;;3.40;99.90;;;;;;5113703;28;19928;-54
2021/11/19 02:39:04;;;;;;;;;;;3.40;99.90;;;;;;5115225;28;19985;-53
2021/11/19 02:41:32;;;;;;;;;;;3.40;99.90;;;;;;5114571;28;19977;-54
2021/11/19 02:44:00;;;;;;;;;;;3.50;99.90;;;;;;5111832;28;19969;-54
2021/11/19 02:46:29;;;;;;;;;;;3.50;99.90;;;;;;5113637;28;20354;-54
2021/11/19 02:48:56;;;;;;;;;;;3.50;99.90;;;;;;5109280;28;19932;-52
2021/11/19 02:51:24;;;;;;;;;;;3.60;99.90;;;;;;5114228;28;19924;-54
2021/11/19 02:53:51;;;;;;;;;;;3.70;99.90;;;;;;5113601;28;19923;-53
2021/11/19 02:56:19;;;;;;;;;;;3.70;99.90;;;;;;5114132;28;19924;-54
2021/11/19 02:58:46;;;;;;;;;;;3.50;99.90;;;;;;5109751;28;19924;-53
2021/11/19 03:01:15;;;;;;;;;;;3.60;99.90;;;;;;5113624;28;19969;-54
2021/11/19 03:03:44;;;;;;;;;;;3.60;99.90;;;;;;5114235;28;20446;-55
2021/11/19 03:06:11;;;;;;;;;;;3.40;99.90;;;;;;5114661;28;20454;-54
2021/11/19 03:08:39;;;;;;;;;;;3.40;99.90;;;;;;5113565;28;19924;-54
2021/11/19 03:11:06;;;;;;;;;;;3.40;99.90;;;;;;5113557;28;20044;-52
2021/11/19 03:13:35;;;;;;;;;;;3.50;99.90;;;;;;5113873;28;20442;-53
2021/11/19 03:16:03;;;;;;;;;;;3.50;99.90;;;;;;5114169;28;20014;-53
2021/11/19 03:18:29;;;;;;;;;;;3.30;99.90;;;;;;5113952;28;19985;-54
2021/11/19 03:20:57;;;;;;;;;;;3.50;99.90;;;;;;5113956;28;19924;-54
2021/11/19 03:23:25;;;;;;;;;;;3.30;99.90;;;;;;5113540;28;20290;-53
2021/11/19 03:25:53;;;;;;;;;;;3.30;99.90;;;;;;5100219;28;19924;-53
2021/11/19 03:28:21;;;;;;;;;;;3.30;99.90;;;;;;5094385;28;19924;-53
2021/11/19 03:30:49;;;;;;;;;;;3.20;99.90;;;;;;5113894;28;19928;-53
2021/11/19 03:33:21;;;;;;;;;;;3.10;99.90;;;;;;5113747;28;20426;-53
2021/11/19 03:35:48;;;;;;;;;;;3.20;99.90;;;;;;5113791;28;19924;-53
2021/11/19 03:38:15;;;;;;;;;;;3.40;99.90;;;;;;5113360;28;19977;-53
2021/11/19 03:40:44;;;;;;;;;;;3.30;99.90;;;;;;5113608;28;19936;-54
2021/11/19 03:43:14;;;;;;;;;;;3.20;99.90;;;;;;5113935;28;20433;-53
2021/11/19 03:45:42;;;;;;;;;;;3.30;99.90;;;;;;5113574;28;20505;-54
2021/11/19 03:48:09;;;;;;;;;;;3.30;99.90;;;;;;5113208;28;19969;-54
2021/11/19 03:50:40;;;;;;;;;;;3.20;99.90;;;;;;5113227;28;19927;-54
2021/11/19 03:53:07;;;;;;;;;;;3.20;99.90;;;;;;5113351;28;20015;-54
2021/11/19 03:55:35;;;;;;;;;;;3.30;99.90;;;;;;5113862;28;20346;-54
2021/11/19 03:58:03;;;;;;;;;;;3.30;99.90;;;;;;5113143;28;19976;-54
2021/11/19 04:00:32;;;;;;;;;;;3.20;99.90;;;;;;5115396;22;19924;-49
2021/11/19 04:02:59;;;;;;;;;;;3.20;99.90;;;;;;5072562;28;19924;-49
2021/11/19 04:05:27;;;;;;;;;;;3.30;99.90;;;;;;5082704;28;20366;-51
2021/11/19 04:07:54;;;;;;;;;;;3.20;99.90;;;;;;5092199;28;19927;-51
2021/11/19 04:10:21;;;;;;;;;;;3.30;99.90;;;;;;5092316;28;19924;-49
2021/11/19 04:12:48;;;;;;;;;;;3.20;99.90;;;;;;5092927;28;19928;-50
2021/11/19 04:15:16;;;;;;;;;;;3.20;99.90;;;;;;5092340;28;19924;-50
2021/11/19 04:17:45;;;;;;;;;;;3.20;99.90;;;;;;5088707;28;19977;-49
2021/11/19 04:20:12;;;;;;;;;;;3.20;99.90;;;;;;5074329;28;19982;-49
2021/11/19 04:22:42;;;;;;;;;;;3.20;99.90;;;;;;5077820;28;19928;-49
2021/11/19 04:25:10;;;;;;;;;;;3.10;99.90;;;;;;5092659;28;19969;-50
2021/11/19 04:27:38;;;;;;;;;;;2.80;99.90;;;;;;5092587;28;20019;-50
2021/11/19 04:30:06;;;;;;;;;;;2.90;99.90;;;;;;5089604;28;20355;-50
2021/11/19 04:32:33;;;;;;;;;;;3.00;99.90;;;;;;5082388;28;19977;-49
2021/11/19 04:35:01;;;;;;;;;;;3.00;99.90;;;;;;5071872;28;19924;-50
2021/11/19 04:37:28;;;;;;;;;;;3.10;99.90;;;;;;5089174;28;20003;-50
2021/11/19 04:39:55;;;;;;;;;;;3.10;99.90;;;;;;5088201;28;19932;-49
2021/11/19 04:42:22;;;;;;;;;;;3.10;99.90;;;;;;5091550;28;19974;-49
2021/11/19 04:44:49;;;;;;;;;;;3.10;99.90;;;;;;5092222;28;19924;-50
2021/11/19 04:47:16;;;;;;;;;;;3.10;99.90;;;;;;5092252;28;19950;-48
2021/11/19 04:49:43;;;;;;;;;;;2.80;99.90;;;;;;5090093;28;19924;-51
2021/11/19 04:52:14;;;;;;;;;;;2.90;99.90;;;;;;5071710;28;19933;-50
2021/11/19 04:54:41;;;;;;;;;;;3.00;99.90;;;;;;5079800;28;19931;-49
2021/11/19 04:57:09;;;;;;;;;;;2.90;99.90;;;;;;5092110;28;19924;-50
2021/11/19 04:59:36;;;;;;;;;;;2.90;99.90;;;;;;5091951;28;19924;-50
2021/11/19 05:02:08;;;;;;;;;;;2.80;99.90;;;;;;5091886;28;19924;-49
2021/11/19 05:04:35;;;;;;;;;;;2.50;99.90;;;;;;5092269;28;19924;-50
2021/11/19 05:07:02;;;;;;;;;;;2.50;99.90;;;;;;5082290;28;19974;-49
2021/11/19 05:09:31;;;;;;;;;;;2.70;99.90;;;;;;5071705;28;19929;-49
2021/11/19 05:12:00;;;;;;;;;;;2.80;99.90;;;;;;5088213;28;19924;-49
2021/11/19 05:14:27;;;;;;;;;;;2.90;99.90;;;;;;5091397;28;19931;-49
2021/11/19 05:16:54;;;;;;;;;;;2.90;99.90;;;;;;5091185;28;19977;-50
2021/11/19 05:19:21;;;;;;;;;;;2.80;99.90;;;;;;5087366;28;19977;-48
2021/11/19 05:21:48;;;;;;;;;;;2.80;99.90;;;;;;5082359;28;19977;-49
2021/11/19 05:24:15;;;;;;;;;;;2.90;99.90;;;;;;5077611;28;19978;-49
2021/11/19 05:26:44;;;;;;;;;;;2.90;99.90;;;;;;5088331;28;19989;-50
2021/11/19 05:29:11;;;;;;;;;;;2.90;99.90;;;;;;5071532;28;19925;-48
2021/11/19 05:31:38;;;;;;;;;;;3.00;99.90;;;;;;5071445;28;20019;-49
2021/11/19 05:34:05;;;;;;;;;;;2.80;99.90;;;;;;5088003;28;19938;-49
2021/11/19 05:36:32;;;;;;;;;;;2.70;99.90;;;;;;5071537;28;20459;-50
2021/11/19 05:38:59;;;;;;;;;;;2.70;99.90;;;;;;5081725;28;19978;-49
2021/11/19 05:41:27;;;;;;;;;;;2.90;99.90;;;;;;5091247;28;19924;-50
2021/11/19 05:43:55;;;;;;;;;;;2.90;99.90;;;;;;5091844;28;20321;-50
2021/11/19 05:46:24;;;;;;;;;;;2.90;99.90;;;;;;5093228;28;19928;-50
2021/11/19 05:48:51;;;;;;;;;;;3.00;99.90;;;;;;5095040;28;20385;-50
2021/11/19 05:51:18;;;;;;;;;;;2.90;99.90;;;;;;5095303;28;19932;-50
2021/11/19 05:53:46;;;;;;;;;;;2.90;99.90;;;;;;5095708;28;19950;-49
2021/11/19 05:56:13;;;;;;;;;;;3.00;99.90;;;;;;5095342;28;19924;-50
2021/11/19 05:58:41;;;;;;;;;;;2.90;99.90;;;;;;5095228;28;19924;-49
2021/11/19 06:01:11;;;;;;;;;;;2.80;99.90;;;;;;5087984;28;19924;-49
2021/11/19 06:03:39;;;;;;;;;;;2.80;99.90;;;;;;5075029;28;19931;-50
2021/11/19 06:06:09;;;;;;;;;;;2.70;99.90;;;;;;5085197;28;19947;-50
2021/11/19 06:08:36;;;;;;;;;;;2.70;99.90;;;;;;5074744;28;19925;-50
2021/11/19 06:11:04;;;;;;;;;;;2.60;99.90;;;;;;5089062;28;20382;-50
2021/11/19 06:13:32;;;;;;;;;;;2.80;99.90;;;;;;5075229;28;20340;-49
2021/11/19 06:16:01;;;;;;;;;;;2.90;99.90;;;;;;5081453;28;19977;-49
2021/11/19 06:18:33;;;;;;;;;;;2.90;99.90;;;;;;5095276;28;19928;-49
2021/11/19 06:21:05;;;;;;;;;;;3.00;99.90;;;;;;5094787;28;19971;-50
2021/11/19 06:23:34;;;;;;;;;;;3.00;99.90;;;;;;5094687;28;19977;-49
2021/11/19 06:26:02;;;;;;;;;;;3.10;99.90;;;;;;5094998;28;19985;-49
2021/11/19 06:28:30;;;;;;;;;;;3.20;99.90;;;;;;5093482;28;19977;-50
2021/11/19 06:30:59;;;;;;;;;;;3.10;99.90;;;;;;5077041;28;19928;-50
2021/11/19 06:33:26;;;;;;;;;;;3.20;99.90;;;;;;5087873;28;19924;-49
2021/11/19 06:35:54;;;;;;;;;;;3.30;99.90;;;;;;5094827;28;19931;-50
2021/11/19 06:38:21;;;;;;;;;;;3.30;99.90;;;;;;5092540;28;19977;-50
2021/11/19 06:40:48;;;;;;;;;;;3.20;99.90;;;;;;5094327;28;20459;-49
2021/11/19 06:43:15;;;;;;;;;;;3.20;99.90;;;;;;5094389;28;19928;-51
2021/11/19 06:45:42;;;;;;;;;;;3.10;99.90;;;;;;5093411;28;19924;-50
2021/11/19 06:48:09;;;;;;;;;;;3.20;99.90;;;;;;5093711;28;19985;-51
2021/11/19 06:50:37;;;;;;;;;;;3.30;99.90;;;;;;5094227;28;19924;-49
2021/11/19 06:53:06;;;;;;;;;;;3.30;99.90;;;;;;5088889;28;19932;-49
2021/11/19 06:55:33;;;;;;;;;;;3.30;99.90;;;;;;5080513;28;19954;-52
2021/11/19 06:58:00;;;;;;;;;;;3.40;99.90;;;;;;5089612;28;19947;-49
2021/11/19 07:00:28;;;;;;;;;;;3.40;99.90;;;;;;5075723;28;19928;-49
2021/11/19 07:02:56;;;;;;;;;;;3.50;99.90;;;;;;5093750;28;19946;-50
2021/11/19 07:05:23;;;;;;;;;;;3.40;99.90;;;;;;5093482;28;19924;-50
2021/11/19 07:07:50;;;;;;;;;;;3.40;99.90;;;;;;5082294;28;20416;-50
2021/11/19 07:10:20;;;;;;;;;;;3.50;99.90;;;;;;5084771;28;19928;-50
2021/11/19 07:12:47;;;;;;;;;;;3.50;99.90;;;;;;5093139;28;19924;-48
2021/11/19 07:15:16;;;;;;;;;;;3.50;99.90;;;;;;5085675;28;20005;-49
2021/11/19 07:17:43;;;;;;;;;;;3.60;99.90;;;;;;5083156;28;19957;-49
2021/11/19 07:20:11;;;;;;;;;;;3.70;99.90;;;;;;5086519;28;19978;-49
2021/11/19 07:22:39;;;;;;;;;;;3.70;99.90;;;;;;5088864;28;19924;-50
2021/11/19 07:25:06;;;;;;;;;;;3.70;99.90;;;;;;5084874;28;19928;-50
2021/11/19 07:27:35;;;;;;;;;;;3.70;99.90;;;;;;5091901;28;19969;-49
2021/11/19 07:30:01;;;;;;;;;;;3.80;99.90;;;;;;5092803;28;20347;-49
2021/11/19 07:32:28;;;;;;;;;;;4.00;99.90;;;;;;5093079;28;20338;-50
2021/11/19 07:34:55;;;;;;;;;;;4.10;99.90;;;;;;5093238;28;19924;-48
2021/11/19 07:37:23;;;;;;;;;;;4.20;99.90;;;;;;5092556;28;19931;-50
2021/11/19 07:39:50;;;;;;;;;;;4.10;99.90;;;;;;5092827;28;19935;-50
2021/11/19 07:42:17;;;;;;;;;;;4.00;99.90;;;;;;5092983;28;20348;-49
2021/11/19 07:44:45;;;;;;;;;;;4.10;99.90;;;;;;5084301;28;19988;-50
2021/11/19 07:47:12;;;;;;;;;;;4.20;99.90;;;;;;5091359;28;19978;-50
2021/11/19 07:49:39;;;;;;;;;;;4.30;99.90;;;;;;5085656;28;19969;-50
2021/11/19 07:52:06;;;;;;;;;;;4.30;99.90;;;;;;5082775;28;19983;-50
2021/11/19 07:54:33;;;;;;;;;;;4.40;99.90;;;;;;5091301;28;19927;-50
2021/11/19 07:56:59;;;;;;;;;;;4.50;99.90;;;;;;5089124;28;19928;-49
2021/11/19 07:59:28;;;;;;;;;;;4.50;99.90;;;;;;5075091;28;19986;-50
2021/11/19 08:01:59;;;;;;;;;;;4.60;99.90;;;;;;5082109;28;19924;-50
2021/11/19 08:04:26;;;;;;;;;;;4.60;99.90;;;;;;5092478;28;19924;-50
2021/11/19 08:06:53;;;;;;;;;;;4.70;99.90;;;;;;5090936;28;19928;-50
2021/11/19 08:09:20;;;;;;;;;;;4.80;99.90;;;;;;5082976;28;19928;-50
2021/11/19 08:11:47;;;;;;;;;;;4.80;99.90;;;;;;5092482;28;19978;-50
2021/11/19 08:14:15;;;;;;;;;;;4.80;99.90;;;;;;5093887;28;19928;-50
2021/11/19 08:16:44;;;;;;;;;;;4.90;99.90;;;;;;5090238;28;19932;-50
2021/11/19 08:19:27;;;;;;;;;;;5.20;99.90;;;;;;5087273;28;19977;-49
2021/11/19 08:21:55;;;;;;;;;;;5.30;99.90;;;;;;5091475;28;19977;-51
2021/11/19 08:24:21;;;;;;;;;;;5.50;99.90;;;;;;5098368;28;19978;-50
2021/11/19 08:26:49;;;;;;;;;;;5.50;99.90;;;;;;5086877;28;19950;-49
2021/11/19 08:29:18;;;;;;;;;;;5.60;99.90;;;;;;5086546;28;19925;-50
2021/11/19 08:31:45;;;;;;;;;;;5.70;99.90;;;;;;5088540;28;19928;-50
2021/11/19 08:34:13;;;;;;;;;;;5.80;99.90;;;;;;5095319;28;19985;-52
2021/11/19 08:36:40;;;;;;;;;;;5.80;99.90;;;;;;5084354;28;19929;-51
2021/11/19 08:39:07;;;;;;;;;;;6.10;99.90;;;;;;5088764;28;19928;-51
2021/11/19 08:41:34;;;;;;;;;;;6.20;99.90;;;;;;5094762;28;19924;-50
2021/11/19 08:44:01;;;;;;;;;;;6.30;99.90;;;;;;5094882;28;19928;-50
2021/11/19 08:46:29;;;;;;;;;;;6.30;99.90;;;;;;5085801;28;20382;-50
2021/11/19 08:48:56;;;;;;;;;;;6.50;99.90;;;;;;5088020;28;19924;-50
2021/11/19 08:51:26;;;;;;;;;;;6.80;99.90;;;;;;5093687;28;20443;-51
2021/11/19 08:53:54;;;;;;;;;;;6.90;99.90;;;;;;5085192;28;19977;-50
2021/11/19 08:56:21;;;;;;;;;;;6.90;99.90;;;;;;5093169;28;20345;-50
2021/11/19 08:58:48;;;;;;;;;;;7.20;99.90;;;;;;5082284;28;19924;-50
2021/11/19 09:01:16;;;;;;;;;;;7.40;99.90;;;;;;5071777;28;19932;-50
2021/11/19 09:03:43;;;;;;;;;;;7.70;99.90;;;;;;5082404;28;20347;-50
2021/11/19 09:06:12;;;;;;;;;;;8.00;99.90;;;;;;5091847;28;19925;-50
2021/11/19 09:08:40;;;;;;;;;;;8.20;99.90;;;;;;5091758;28;19924;-50
2021/11/19 09:11:08;;;;;;;;;;;8.20;99.90;;;;;;5091499;28;19928;-50
2021/11/19 09:13:35;;;;;;;;;;;8.30;99.90;;;;;;5091816;28;20390;-50
2021/11/19 09:16:04;;;;;;;;;;;8.50;99.90;;;;;;5091898;28;19928;-52
2021/11/19 09:18:34;;;;;;;;;;;8.80;99.90;;;;;;5091782;28;19931;-51
2021/11/19 09:21:12;;;;;;;;;;;9.10;99.90;;;;;;5094114;28;19977;-51
2021/11/19 09:23:42;;;;;;;;;;;9.40;99.90;;;;;;5096518;28;19931;-51
2021/11/19 09:26:10;;;;;;;;;;;9.50;99.90;;;;;;5092335;28;19928;-51
2021/11/19 09:28:38;;;;;;;;;;;9.80;99.90;;;;;;5090634;28;20436;-50
2021/11/19 09:31:06;;;;;;;;;;;9.70;99.90;;;;;;5097024;28;19982;-50
2021/11/19 09:33:33;;;;;;;;;;;9.60;99.90;;;;;;5085531;28;19928;-51
2021/11/19 09:36:00;;;;;;;;;;;9.60;99.90;;;;;;5093262;28;20023;-51
2021/11/19 09:38:28;;;;;;;;;;;9.40;99.90;;;;;;5088901;28;19932;-51
2021/11/19 09:40:59;;;;;;;;;;;9.40;99.90;;;;;;5092700;28;19931;-52
2021/11/19 09:43:32;;;;;;;;;;;9.20;99.90;;;;;;5075891;28;19931;-51
2021/11/19 09:46:17;;;;;;;;;;;8.90;99.90;;;;;;5093539;28;20412;-51
2021/11/19 09:48:55;;;;;;;;;;;9.00;99.90;;;;;;5082159;28;19924;-51
2021/11/19 09:51:40;;;;;;;;;;;9.00;99.90;;;;;;5099635;28;19924;-51
2021/11/19 09:54:28;;;;;;;;;;;8.90;99.90;;;;;;5094064;28;19928;-51
2021/11/19 09:57:24;;;;;;;;;;;9.40;99.90;;;;;;5092608;28;19924;-50
2021/11/19 09:59:56;;;;;;;;;;;9.50;99.90;;;;;;5112630;22;19924;-53
2021/11/19 10:02:40;;;;;;;;;;;9.40;99.90;;;;;;5086160;28;19928;-53
2021/11/19 10:05:16;;;;;;;;;;;9.60;99.90;;;;;;5095568;28;20336;-55
2021/11/19 10:07:46;;;;;;;;;;;9.60;99.90;;;;;;5074811;28;19924;-56
2021/11/19 10:10:30;;;;;;;;;;;9.70;99.90;;;;;;5089747;28;19924;-55
2021/11/19 10:13:00;;;;;;;;;;;9.80;99.90;;;;;;5070128;28;19924;-56
2021/11/19 10:15:32;;;;;;;;;;;9.60;99.90;;;;;;5074873;28;19985;-55
2021/11/19 10:18:02;;;;;;;;;;;9.60;99.90;;;;;;5073124;28;19931;-56
2021/11/19 10:20:30;;;;;;;;;;;9.80;99.90;;;;;;5054690;28;19932;-56
2021/11/19 10:22:59;;;;;;;;;;;9.60;99.90;;;;;;5054744;28;19970;-56
2021/11/19 10:25:35;;;;;;;;;;;9.40;99.90;;;;;;5054781;28;19929;-55
2021/11/19 10:28:10;;;;;;;;;;;8.70;99.90;;;;;;5062699;28;19970;-56
2021/11/19 10:30:40;;;;;;;;;;;8.60;99.90;;;;;;5069643;28;20284;-55
2021/11/19 10:33:15;;;;;;;;;;;8.40;99.90;;;;;;5068334;28;20294;-55
2021/11/19 10:35:52;;;;;;;;;;;8.40;99.90;;;;;;5074034;28;19940;-56
2021/11/19 10:38:34;;;;;;;;;;;8.30;99.90;;;;;;5059575;28;19928;-55
2021/11/19 10:41:19;;;;;;;;;;;8.30;99.90;;;;;;5070464;28;20390;-55
2021/11/19 10:43:52;;;;;;;;;;;8.00;99.90;;;;;;5072441;28;19925;-55
2021/11/19 10:46:38;;;;;;;;;;;7.70;99.90;;;;;;5072777;28;19982;-55
2021/11/19 10:49:19;;;;;;;;;;;7.60;99.90;;;;;;5071630;28;19932;-55
2021/11/19 10:52:12;;;;;;;;;;;7.30;99.90;;;;;;5070725;28;19925;-56
2021/11/19 10:54:57;;;;;;;;;;;7.20;99.90;;;;;;5033361;28;20030;-55
2021/11/19 10:57:43;;;;;;;;;;;7.60;99.90;;;;;;5063269;28;20621;-56
2021/11/19 11:00:12;;;;;;;;;;;8.10;99.90;;;;;;5063497;28;19994;-55
2021/11/19 11:02:42;;;;;;;;;;;8.20;99.90;;;;;;5067186;28;19924;-55
2021/11/19 11:05:36;;;;;;;;;;;8.60;99.90;;;;;;5065372;28;19978;-56
2021/11/19 11:08:14;;;;;;;;;;;9.00;99.90;;;;;;5017895;28;19928;-56
2021/11/19 11:10:46;;;;;;;;;;;9.10;99.90;;;;;;5063794;28;20770;-55
2021/11/19 11:13:31;;;;;;;;;;;9.10;99.90;;;;;;5064963;28;19924;-56
2021/11/19 11:15:59;;;;;;;;;;;9.20;99.90;;;;;;5064389;28;19933;-54
2021/11/19 11:18:29;;;;;;;;;;;8.50;99.90;;;;;;5064722;28;20433;-55
2021/11/19 11:21:04;;;;;;;;;;;8.50;99.90;;;;;;5062552;28;20001;-54
2021/11/19 11:23:36;;;;;;;;;;;8.40;99.90;;;;;;5063865;28;20018;-55
2021/11/19 11:26:07;;;;;;;;;;;8.50;99.90;;;;;;5063015;28;19940;-56
2021/11/19 11:28:40;;;;;;;;;;;8.50;99.90;;;;;;5064102;28;19981;-54
2021/11/19 11:31:16;;;;;;;;;;;8.00;99.90;;;;;;5066162;28;19928;-56
2021/11/19 11:33:52;;;;;;;;;;;7.90;99.90;;;;;;5063898;28;20366;-55
2021/11/19 11:36:21;;;;;;;;;;;7.70;99.90;;;;;;5064102;28;19993;-56
2021/11/19 11:38:52;;;;;;;;;;;7.50;99.90;;;;;;5063949;28;19944;-56
2021/11/19 11:41:23;;;;;;;;;;;7.70;99.90;;;;;;5061502;28;19937;-54
2021/11/19 11:44:08;;;;;;;;;;;7.90;99.90;;;;;;5069962;28;19990;-55
2021/11/19 11:46:36;;;;;;;;;;;8.20;99.90;;;;;;5066840;28;19924;-55
2021/11/19 11:49:17;;;;;;;;;;;8.30;99.90;;;;;;5064749;28;19978;-55
2021/11/19 11:51:52;;;;;;;;;;;8.40;99.90;;;;;;5059327;28;19925;-56
2021/11/19 11:54:23;;;;;;;;;;;8.50;99.90;;;;;;5061951;28;19978;-55
2021/11/19 11:57:13;;;;;;;;;;;8.40;99.90;;;;;;5067488;28;20393;-55
2021/11/19 11:59:44;;;;;;;;;;;8.40;99.90;;;;;;5063853;28;19985;-55
2021/11/19 12:02:23;;;;;;;;;;;8.30;99.90;;;;;;5063067;28;19932;-54
2021/11/19 12:04:55;;;;;;;;;;;8.30;99.90;;;;;;5060482;28;19936;-56
2021/11/19 12:07:30;;;;;;;;;;;8.30;99.90;;;;;;5065431;28;19931;-55
2021/11/19 12:10:01;;;;;;;;;;;8.40;99.90;;;;;;5060203;28;20513;-55
2021/11/19 12:12:34;;;;;;;;;;;8.20;99.90;;;;;;5060488;28;20356;-55
2021/11/19 12:15:16;;;;;;;;;;;8.30;99.90;;;;;;5061044;28;20007;-55
2021/11/19 12:17:47;;;;;;;;;;;8.70;99.90;;;;;;5056763;28;19986;-55
2021/11/19 12:20:34;;;;;;;;;;;8.60;99.90;;;;;;5058806;28;19924;-52
2021/11/19 12:23:04;;;;;;;;;;;8.50;99.90;;;;;;5060678;28;20460;-52
2021/11/19 12:25:46;;;;;;;;;;;8.80;99.90;;;;;;5060565;28;19933;-51
2021/11/19 12:28:14;;;;;;;;;;;8.70;99.90;;;;;;5063069;28;20057;-53
2021/11/19 12:30:42;;;;;;;;;;;8.80;99.90;;;;;;5063088;28;19925;-55
2021/11/19 12:33:21;;;;;;;;;;;9.00;99.90;;;;;;5072306;28;19928;-55
2021/11/19 12:36:05;;;;;;;;;;;9.10;99.90;;;;;;5072295;28;19935;-55
2021/11/19 12:38:40;;;;;;;;;;;9.10;99.90;;;;;;5072396;28;19925;-56
2021/11/19 12:41:19;;;;;;;;;;;8.80;99.90;;;;;;5072403;28;20015;-55
2021/11/19 12:43:58;;;;;;;;;;;8.90;99.90;;;;;;5071252;28;19925;-54
2021/11/19 12:46:37;;;;;;;;;;;9.10;99.90;;;;;;5072245;28;19925;-55
2021/11/19 12:49:32;;;;;;;;;;;8.90;99.90;;;;;;5072414;28;19966;-55
2021/11/19 12:52:01;;;;;;;;;;;8.90;99.90;;;;;;5058181;28;19928;-56
2021/11/19 12:54:37;;;;;;;;;;;9.00;99.90;;;;;;5071832;28;19974;-55
2021/11/19 12:57:21;;;;;;;;;;;9.10;99.90;;;;;;5071525;28;19932;-55
2021/11/19 12:59:52;;;;;;;;;;;8.30;99.90;;;;;;5059085;28;19925;-55
2021/11/19 13:02:23;;;;;;;;;;;8.20;99.90;;;;;;5051747;28;19929;-55
2021/11/19 13:04:53;;;;;;;;;;;8.40;99.90;;;;;;5058270;28;19928;-55
2021/11/19 13:07:31;;;;;;;;;;;8.80;99.90;;;;;;5058364;28;19951;-56
2021/11/19 13:10:01;;;;;;;;;;;8.80;99.90;;;;;;5060142;28;19924;-56
2021/11/19 13:12:40;;;;;;;;;;;8.90;99.90;;;;;;5053705;28;19932;-55
2021/11/19 13:15:34;;;;;;;;;;;8.50;99.90;;;;;;5052689;28;19968;-55
2021/11/19 13:18:06;;;;;;;;;;;8.30;99.90;;;;;;5056858;28;19924;-54
2021/11/19 13:20:52;;;;;;;;;;;8.10;99.90;;;;;;5060287;28;19978;-56
2021/11/19 13:23:41;;;;;;;;;;;8.10;99.90;;;;;;5059050;28;19993;-55
2021/11/19 13:26:26;;;;;;;;;;;8.30;99.90;;;;;;5054622;28;19924;-55
2021/11/19 13:28:55;;;;;;;;;;;7.90;99.90;;;;;;5070542;28;20413;-54
2021/11/19 13:31:30;;;;;;;;;;;7.90;99.90;;;;;;5071701;28;19928;-55
2021/11/19 13:34:15;;;;;;;;;;;8.10;99.90;;;;;;5059321;28;19936;-54
2021/11/19 13:36:43;;;;;;;;;;;8.40;99.90;;;;;;5064836;28;19947;-55
2021/11/19 13:39:12;;;;;;;;;;;8.10;99.90;;;;;;5071996;28;19946;-55
2021/11/19 13:41:41;;;;;;;;;;;8.10;99.90;;;;;;5065083;28;20023;-55
2021/11/19 13:44:10;;;;;;;;;;;8.00;99.90;;;;;;5057238;28;19947;-55
2021/11/19 13:46:46;;;;;;;;;;;8.00;99.90;;;;;;5068273;28;19959;-55
2021/11/19 13:49:30;;;;;;;;;;;8.10;99.90;;;;;;5069021;28;19929;-54
2021/11/19 13:52:00;;;;;;;;;;;8.10;99.90;;;;;;5070974;28;19928;-55
2021/11/19 13:54:30;;;;;;;;;;;8.10;99.90;;;;;;5071682;28;19925;-55
2021/11/19 13:57:07;;;;;;;;;;;8.10;99.90;;;;;;5071723;28;20016;-56
2021/11/19 13:59:43;;;;;;;;;;;8.10;99.90;;;;;;5071467;28;19924;-55
2021/11/19 14:02:29;;;;;;;;;;;8.10;99.90;;;;;;5069543;28;20341;-57
2021/11/19 14:04:57;;;;;;;;;;;8.30;99.90;;;;;;5071074;28;19935;-56
2021/11/19 14:07:26;;;;;;;;;;;8.30;99.90;;;;;;5072935;28;19924;-56
2021/11/19 14:09:56;;;;;;;;;;;8.30;99.90;;;;;;5078544;28;19931;-55
2021/11/19 14:12:24;;;;;;;;;;;8.00;99.90;;;;;;5083499;28;19931;-55
2021/11/19 14:14:54;;;;;;;;;;;8.00;99.90;;;;;;5075177;28;19970;-55
2021/11/19 14:17:26;;;;;;;;;;;7.80;99.90;;;;;;5064128;28;19986;-55
2021/11/19 14:22:52;;;;;;;;;;;7.60;99.90;;;;;;5068500;28;19920;-54
2021/11/19 14:25:21;;;;;;;;;;;7.50;99.90;;;;;;5075028;28;19924;-55
2021/11/19 14:27:50;;;;;;;;;;;7.50;99.90;;;;;;5074704;28;20310;-55
2021/11/19 14:30:21;;;;;;;;;;;7.50;99.90;;;;;;5073555;28;20337;-55
2021/11/19 14:32:52;;;;;;;;;;;7.60;99.90;;;;;;5074825;28;20394;-55
2021/11/19 14:35:21;;;;;;;;;;;7.80;99.90;;;;;;5074738;28;19931;-56
2021/11/19 14:37:48;;;;;;;;;;;7.90;99.90;;;;;;5074763;28;20306;-55
2021/11/19 14:40:18;;;;;;;;;;;8.00;99.90;;;;;;5074439;28;19947;-55
2021/11/19 14:42:45;;;;;;;;;;;8.00;99.90;;;;;;5068630;28;19925;-56
2021/11/19 14:45:13;;;;;;;;;;;7.80;99.90;;;;;;5054687;28;19986;-55
2021/11/19 14:47:43;;;;;;;;;;;7.80;99.90;;;;;;5054509;28;20318;-55
2021/11/19 14:52:57;;;;;;;;;;;7.60;99.90;;;;;;5054203;28;20027;-55
2021/11/19 14:55:29;;;;;;;;;;;7.60;99.90;;;;;;5054518;28;20311;-55